createdAt,value
2019-02-09T00:02:19.435Z,9.78
2019-02-09T00:06:03.400Z,9.74
2019-02-09T00:09:48.045Z,9.48
2019-02-09T00:13:51.493Z,9.69
2019-02-09T00:17:36.430Z,9.56
2019-02-09T00:21:21.050Z,9.71
2019-02-09T00:25:26.250Z,9.52
2019-02-09T00:29:11.215Z,9.36
2019-02-09T00:32:55.870Z,9.63
2019-02-09T00:36:40.451Z,9.58
2019-02-09T00:40:25.288Z,9.68
2019-02-09T00:44:10.089Z,9.66
2019-02-09T00:47:54.740Z,9.85
2019-02-09T00:51:39.386Z,9.94
2019-02-09T00:55:16.491Z,9.73
2019-02-09T00:59:01.087Z,9.78
2019-02-09T01:02:45.668Z,9.88
2019-02-09T01:06:30.311Z,9.70
2019-02-09T01:10:15.470Z,9.71
2019-02-09T01:14:00.354Z,9.60
2019-02-09T01:17:45.009Z,9.98
2019-02-09T01:21:29.601Z,9.68
2019-02-09T01:25:14.337Z,9.69
2019-02-09T01:28:59.230Z,9.66
2019-02-09T01:32:43.885Z,9.95
2019-02-09T01:36:28.510Z,9.59
2019-02-09T01:40:53.661Z,10.01
2019-02-09T01:44:38.251Z,9.96
2019-02-09T01:48:22.878Z,9.89
2019-02-09T01:52:07.929Z,9.77
2019-02-09T01:55:44.722Z,9.79
2019-02-09T01:59:29.627Z,9.98
2019-02-09T02:03:14.268Z,9.98
2019-02-09T02:06:58.924Z,9.87
2019-02-09T02:10:43.519Z,9.80
2019-02-09T02:14:28.132Z,9.95
2019-02-09T02:18:13.063Z,9.85
2019-02-09T02:21:57.699Z,10.02
2019-02-09T02:25:42.376Z,10.00
2019-02-09T02:29:26.990Z,9.99
2019-02-09T02:33:11.599Z,10.34
2019-02-09T02:36:56.195Z,10.26
2019-02-09T02:40:41.245Z,10.37
2019-02-09T02:44:25.890Z,10.52
2019-02-09T02:48:10.498Z,10.36
2019-02-09T02:55:51.361Z,10.50
2019-02-09T02:59:36.214Z,10.25
2019-02-09T03:03:21.053Z,10.60
2019-02-09T03:07:05.875Z,10.48
2019-02-09T03:14:40.832Z,10.80
2019-02-09T03:18:25.708Z,10.43
2019-02-09T03:22:10.332Z,10.52
2019-02-09T03:25:55.583Z,10.61
2019-02-09T03:34:10.106Z,10.70
2019-02-09T03:37:54.721Z,10.52
2019-02-09T03:41:58.235Z,10.31
2019-02-09T03:45:42.820Z,10.42
2019-02-09T03:53:14.115Z,10.55
2019-02-09T03:56:58.725Z,10.48
2019-02-09T04:00:43.364Z,10.64
2019-02-09T04:08:17.794Z,10.16
2019-02-09T04:12:02.776Z,10.10
2019-02-09T04:15:47.400Z,9.64
2019-02-09T04:19:31.986Z,9.63
2019-02-09T04:27:20.423Z,9.82
2019-02-09T04:31:06.706Z,9.69
2019-02-09T04:42:32.113Z,9.84
2019-02-09T04:46:16.717Z,9.71
2019-02-09T04:50:01.365Z,9.66
2019-02-09T04:53:38.392Z,9.35
2019-02-09T04:57:23.379Z,9.54
2019-02-09T05:01:13.760Z,9.37
2019-02-09T05:05:13.785Z,9.69
2019-02-09T05:08:58.473Z,9.95
2019-02-09T05:12:43.420Z,9.82
2019-02-09T05:20:20.631Z,10.25
2019-02-09T05:24:05.551Z,10.05
2019-02-09T05:27:50.161Z,10.04
2019-02-09T05:31:34.767Z,10.04
2019-02-09T05:35:19.379Z,10.13
2019-02-09T05:38:44.989Z,10.10
2019-02-09T05:42:10.557Z,10.44
2019-02-09T05:45:36.220Z,10.35
2019-02-09T05:49:01.852Z,10.30
2019-02-09T05:52:27.424Z,10.25
2019-02-09T05:55:53.049Z,9.94
2019-02-09T05:59:18.907Z,10.04
2019-02-09T06:02:44.468Z,10.16
2019-02-09T06:06:10.213Z,10.38
2019-02-09T06:09:35.856Z,10.21
2019-02-09T06:13:06.407Z,10.24
2019-02-09T06:16:32.130Z,10.38
2019-02-09T06:19:58.046Z,10.22
2019-02-09T06:23:23.661Z,10.19
2019-02-09T06:26:49.258Z,10.23
2019-02-09T06:30:22.106Z,9.91
2019-02-09T06:33:47.711Z,10.09
2019-02-09T06:37:13.324Z,10.11
2019-02-09T06:40:39.259Z,9.92
2019-02-09T06:44:05.035Z,9.70
2019-02-09T06:47:30.598Z,9.78
2019-02-09T06:50:58.473Z,9.83
2019-02-09T06:54:24.421Z,9.76
2019-02-09T06:57:50.182Z,9.49
2019-02-09T07:01:15.848Z,9.55
2019-02-09T07:04:41.514Z,9.69
2019-02-09T07:08:07.458Z,9.20
2019-02-09T07:11:33.384Z,9.12
2019-02-09T07:14:59.312Z,9.07
2019-02-09T07:18:24.984Z,8.85
2019-02-09T07:21:53.057Z,8.64
2019-02-09T07:25:22.101Z,8.67
2019-02-09T07:28:47.787Z,8.73
2019-02-09T07:32:18.483Z,9.03
2019-02-09T07:35:44.126Z,8.78
2019-02-09T07:39:11.115Z,8.80
2019-02-09T07:42:36.806Z,8.96
2019-02-09T07:46:02.779Z,8.95
2019-02-09T07:49:28.365Z,9.05
2019-02-09T07:52:56.097Z,9.17
2019-02-09T07:56:21.975Z,9.17
2019-02-09T07:59:51.900Z,9.22
2019-02-09T08:03:25.764Z,9.05
2019-02-09T08:06:51.781Z,9.30
2019-02-09T08:10:22.639Z,9.21
2019-02-09T08:13:57.487Z,9.46
2019-02-09T08:17:33.225Z,9.34
2019-02-09T08:21:07.499Z,9.50
2019-02-09T08:24:36.338Z,9.62
2019-02-09T08:28:05.974Z,9.79
2019-02-09T08:31:31.848Z,9.95
2019-02-09T08:34:59.131Z,9.76
2019-02-09T08:38:36.832Z,10.04
2019-02-09T08:42:02.846Z,10.10
2019-02-09T08:45:28.395Z,10.14
2019-02-09T08:48:59.248Z,10.44
2019-02-09T08:52:39.388Z,10.46
2019-02-09T08:56:01.977Z,10.50
2019-02-09T08:59:27.595Z,10.48
2019-02-09T09:02:53.695Z,10.32
2019-02-09T09:06:19.320Z,10.31
2019-02-09T09:09:45.034Z,10.46
2019-02-09T09:13:10.663Z,11.08
2019-02-09T09:16:36.268Z,11.00
2019-02-09T09:20:01.972Z,10.96
2019-02-09T09:23:27.598Z,10.99
2019-02-09T09:26:53.566Z,10.69
2019-02-09T09:30:22.446Z,10.92
2019-02-09T09:33:48.111Z,10.74
2019-02-09T09:37:13.741Z,10.90
2019-02-09T09:40:41.669Z,11.17
2019-02-09T09:44:07.703Z,11.26
2019-02-09T09:47:33.461Z,11.21
2019-02-09T09:50:59.173Z,11.12
2019-02-09T09:54:24.920Z,11.18
2019-02-09T09:57:50.518Z,11.49
2019-02-09T10:01:16.160Z,11.88
2019-02-09T10:04:41.870Z,12.03
2019-02-09T10:08:08.080Z,12.60
2019-02-09T10:11:37.381Z,12.24
2019-02-09T10:15:03.032Z,12.18
2019-02-09T10:18:28.699Z,14.28
2019-02-09T10:21:54.334Z,12.22
2019-02-09T10:25:20.372Z,11.86
2019-02-09T10:28:46.123Z,11.15
2019-02-09T10:32:11.661Z,10.89
2019-02-09T10:35:37.290Z,10.97
2019-02-09T10:39:03.599Z,10.85
2019-02-09T10:42:29.542Z,11.34
2019-02-09T10:45:55.185Z,11.42
2019-02-09T10:49:20.722Z,11.00
2019-02-09T10:52:46.310Z,10.64
2019-02-09T10:56:11.984Z,11.17
2019-02-09T10:59:37.571Z,11.49
2019-02-09T11:03:05.833Z,11.85
2019-02-09T11:06:31.472Z,12.93
2019-02-09T11:09:57.071Z,12.16
2019-02-09T11:13:22.673Z,11.96
2019-02-09T11:16:48.236Z,11.82
2019-02-09T11:20:17.020Z,11.81
2019-02-09T11:23:42.719Z,11.65
2019-02-09T11:27:08.276Z,11.38
2019-02-09T11:30:34.220Z,11.51
2019-02-09T11:33:59.773Z,11.89
2019-02-09T11:37:25.916Z,13.22
2019-02-09T11:40:51.491Z,14.52
2019-02-09T11:44:17.095Z,15.42
2019-02-09T11:47:43.018Z,15.57
2019-02-09T11:51:09.048Z,14.81
2019-02-09T11:54:34.665Z,14.87
2019-02-09T11:58:02.746Z,14.45
2019-02-09T12:01:28.404Z,14.53
2019-02-09T12:04:54.248Z,13.57
2019-02-09T12:08:19.882Z,13.45
2019-02-09T12:11:45.609Z,13.29
2019-02-09T12:15:16.723Z,13.34
2019-02-09T12:18:42.381Z,12.62
2019-02-09T12:22:08.281Z,12.61
2019-02-09T12:25:35.397Z,12.66
2019-02-09T12:29:01.273Z,12.22
2019-02-09T12:32:27.144Z,11.20
2019-02-09T12:35:53.075Z,11.45
2019-02-09T12:39:18.655Z,11.34
2019-02-09T12:42:44.186Z,10.59
2019-02-09T12:46:09.805Z,11.00
2019-02-09T12:49:35.499Z,10.56
2019-02-09T12:53:02.140Z,10.78
2019-02-09T12:56:27.783Z,10.69
2019-02-09T12:59:53.429Z,10.68
2019-02-09T13:03:31.026Z,10.88
2019-02-09T13:06:55.771Z,11.21
2019-02-09T13:10:21.720Z,11.57
2019-02-09T13:13:47.310Z,11.76
2019-02-09T13:17:12.959Z,12.21
2019-02-09T13:20:38.667Z,12.01
2019-02-09T13:24:04.409Z,12.23
2019-02-09T13:27:30.040Z,12.58
2019-02-09T13:30:55.611Z,13.31
2019-02-09T13:34:21.216Z,13.78
2019-02-09T13:37:47.190Z,13.27
2019-02-09T13:41:12.799Z,13.13
2019-02-09T13:44:38.382Z,13.17
2019-02-09T13:48:04.065Z,12.76
2019-02-09T13:51:29.687Z,12.51
2019-02-09T13:54:55.782Z,12.37
2019-02-09T13:58:21.373Z,12.30
2019-02-09T14:01:47.026Z,12.45
2019-02-09T14:05:12.897Z,12.30
2019-02-09T14:08:38.491Z,11.67
2019-02-09T14:12:04.428Z,11.78
2019-02-09T14:15:32.012Z,11.75
2019-02-09T14:19:16.798Z,11.23
2019-02-09T14:22:42.587Z,10.26
2019-02-09T14:26:08.276Z,9.87
2019-02-09T14:29:34.300Z,9.91
2019-02-09T14:33:00.038Z,9.90
2019-02-09T14:36:25.730Z,10.33
2019-02-09T14:40:33.735Z,10.34
2019-02-09T14:43:59.345Z,10.05
2019-02-09T14:47:24.948Z,10.64
2019-02-09T14:50:50.541Z,10.74
2019-02-09T14:54:16.175Z,10.98
2019-02-09T14:57:41.862Z,10.97
2019-02-09T15:01:07.541Z,10.78
2019-02-09T15:04:33.137Z,10.40
2019-02-09T15:07:59.128Z,11.06
2019-02-09T15:11:24.828Z,10.93
2019-02-09T15:14:50.604Z,11.03
2019-02-09T15:18:16.242Z,10.80
2019-02-09T15:21:41.810Z,10.87
2019-02-09T15:25:09.018Z,10.65
2019-02-09T15:28:34.602Z,11.10
2019-02-09T15:32:00.204Z,10.79
2019-02-09T15:35:26.038Z,11.18
2019-02-09T15:38:51.611Z,11.08
2019-02-09T15:42:17.476Z,11.20
2019-02-09T15:45:43.058Z,11.35
2019-02-09T15:49:08.855Z,11.45
2019-02-09T15:52:34.569Z,11.28
2019-02-09T15:56:06.959Z,11.73
2019-02-09T15:59:32.511Z,11.28
2019-02-09T16:02:59.028Z,11.23
2019-02-09T16:06:24.662Z,11.39
2019-02-09T16:09:50.269Z,11.23
2019-02-09T16:13:15.957Z,11.18
2019-02-09T16:16:41.535Z,11.28
2019-02-09T16:20:09.077Z,11.16
2019-02-09T16:23:34.702Z,11.29
2019-02-09T16:27:00.322Z,11.22
2019-02-09T16:30:26.728Z,11.37
2019-02-09T16:33:52.390Z,11.39
2019-02-09T16:37:18.009Z,11.46
2019-02-09T16:40:43.662Z,11.41
2019-02-09T16:44:09.303Z,11.34
2019-02-09T16:47:34.970Z,11.22
2019-02-09T16:51:00.560Z,11.50
2019-02-09T16:54:26.141Z,11.32
2019-02-09T16:57:51.916Z,11.00
2019-02-09T17:01:17.560Z,10.06
2019-02-09T17:04:43.162Z,9.87
2019-02-09T17:08:09.264Z,10.08
2019-02-09T17:11:34.842Z,9.88
2019-02-09T17:15:00.570Z,10.09
2019-02-09T17:18:26.191Z,9.87
2019-02-09T17:21:51.866Z,10.07
2019-02-09T17:25:17.831Z,9.87
2019-02-09T17:28:43.517Z,9.89
2019-02-09T17:32:09.127Z,9.92
2019-02-09T17:35:34.776Z,10.17
2019-02-09T17:39:00.337Z,10.16
2019-02-09T17:42:26.337Z,10.29
2019-02-09T17:45:56.355Z,10.23
2019-02-09T17:49:22.073Z,10.33
2019-02-09T17:52:47.634Z,10.15
2019-02-09T17:56:13.217Z,10.38
2019-02-09T17:59:38.779Z,10.49
2019-02-09T18:03:04.473Z,10.55
2019-02-09T18:06:30.041Z,10.50
2019-02-09T18:09:55.984Z,10.42
2019-02-09T18:13:21.618Z,10.59
2019-02-09T18:16:47.203Z,10.44
2019-02-09T18:20:14.454Z,10.43
2019-02-09T18:23:40.034Z,10.58
2019-02-09T18:27:05.963Z,10.64
2019-02-09T18:30:31.709Z,10.42
2019-02-09T18:33:57.324Z,10.62
2019-02-09T18:37:22.896Z,10.56
2019-02-09T18:40:48.873Z,10.38
2019-02-09T18:44:14.540Z,10.67
2019-02-09T18:47:40.185Z,10.60
2019-02-09T18:51:05.769Z,10.59
2019-02-09T18:54:31.426Z,10.71
2019-02-09T18:57:57.234Z,10.69
2019-02-09T19:01:22.884Z,10.52
2019-02-09T19:04:48.495Z,10.58
2019-02-09T19:08:13.398Z,10.71
2019-02-09T19:11:39.040Z,10.50
2019-02-09T19:15:06.472Z,10.43
2019-02-09T19:18:32.116Z,10.38
2019-02-09T19:21:57.674Z,10.45
2019-02-09T19:25:23.377Z,10.38
2019-02-09T19:28:49.859Z,10.35
2019-02-09T19:32:15.468Z,10.18
2019-02-09T19:35:41.028Z,10.35
2019-02-09T19:39:10.933Z,10.58
2019-02-09T19:42:36.677Z,10.27
2019-02-09T19:46:02.288Z,10.40
2019-02-09T19:49:27.858Z,10.32
2019-02-09T19:52:53.459Z,10.27
2019-02-09T19:56:19.445Z,10.60
2019-02-09T19:59:45.024Z,10.33
2019-02-09T20:03:11.199Z,10.58
2019-02-09T20:06:36.796Z,10.44
2019-02-09T20:10:02.398Z,10.62
2019-02-09T20:13:28.025Z,10.68
2019-02-09T20:16:53.596Z,10.75
2019-02-09T20:20:19.399Z,10.75
2019-02-09T20:23:44.977Z,10.76
2019-02-09T20:27:10.908Z,10.52
2019-02-09T20:30:37.028Z,10.64
2019-02-09T20:34:02.678Z,10.85
2019-02-09T20:37:28.314Z,10.60
2019-02-09T20:40:59.323Z,10.70
2019-02-09T20:44:24.928Z,10.30
2019-02-09T20:47:50.589Z,10.69
2019-02-09T20:51:16.192Z,10.55
2019-02-09T20:54:41.870Z,10.45
2019-02-09T20:58:10.699Z,10.68
2019-02-09T21:01:55.505Z,10.61
2019-02-09T21:05:41.598Z,10.61
2019-02-09T21:09:26.925Z,10.64
2019-02-09T21:17:07.320Z,10.55
2019-02-09T21:20:51.974Z,10.51
2019-02-09T21:24:36.635Z,10.65
2019-02-09T21:28:21.334Z,10.49
2019-02-09T21:32:06.059Z,10.69
2019-02-09T21:35:44.267Z,10.61
2019-02-09T21:39:33.774Z,10.36
2019-02-09T21:47:07.234Z,10.63
2019-02-09T21:58:57.675Z,10.81
2019-02-09T22:02:42.943Z,10.88
2019-02-09T22:06:28.636Z,10.93
2019-02-09T22:10:34.368Z,10.80
2019-02-09T22:18:24.291Z,10.91
2019-02-09T22:22:09.406Z,10.90
2019-02-09T22:26:14.924Z,10.89
2019-02-09T22:37:55.302Z,10.76
2019-02-09T22:41:39.940Z,10.90
2019-02-09T22:49:29.221Z,11.09
2019-02-09T22:53:13.878Z,10.97
2019-02-09T22:56:58.523Z,10.80
2019-02-09T23:01:21.284Z,11.15
2019-02-09T23:05:34.745Z,11.08
2019-02-09T23:09:24.496Z,11.13
2019-02-09T23:13:09.545Z,11.08
2019-02-09T23:16:54.163Z,11.30
2019-02-09T23:20:38.824Z,10.97
2019-02-09T23:28:26.981Z,11.09
2019-02-09T23:32:11.674Z,11.11
2019-02-09T23:35:48.831Z,11.24
2019-02-09T23:39:33.480Z,11.21
2019-02-09T23:43:18.107Z,11.19
2019-02-09T23:47:02.745Z,11.04
2019-02-09T23:50:47.836Z,11.05
2019-02-09T23:54:32.766Z,11.13
2019-02-09T23:58:17.398Z,11.20
